sensor_id;sensor_type;location;lat;lon;timestamp;P1;durP1;ratioP1;P2;durP2;ratioP2
37997;SDS011;24079;51.824;4.682;2023-04-24T00:01:23;3.15;;;1.73;;
37997;SDS011;24079;51.824;4.682;2023-04-24T00:03:49;3.40;;;1.58;;
37997;SDS011;24079;51.824;4.682;2023-04-24T00:06:16;3.10;;;1.58;;
37997;SDS011;24079;51.824;4.682;2023-04-24T00:08:42;1.77;;;1.67;;
37997;SDS011;24079;51.824;4.682;2023-04-24T00:11:07;4.97;;;1.90;;
37997;SDS011;24079;51.824;4.682;2023-04-24T00:13:34;2.75;;;1.90;;
37997;SDS011;24079;51.824;4.682;2023-04-24T00:16:00;6.10;;;2.08;;
37997;SDS011;24079;51.824;4.682;2023-04-24T00:18:26;4.38;;;2.53;;
37997;SDS011;24079;51.824;4.682;2023-04-24T00:20:51;2.97;;;2.30;;
37997;SDS011;24079;51.824;4.682;2023-04-24T00:23:17;3.45;;;2.63;;
37997;SDS011;24079;51.824;4.682;2023-04-24T00:25:43;4.22;;;3.50;;
37997;SDS011;24079;51.824;4.682;2023-04-24T00:28:08;6.57;;;4.03;;
37997;SDS011;24079;51.824;4.682;2023-04-24T00:30:34;4.50;;;3.80;;
37997;SDS011;24079;51.824;4.682;2023-04-24T00:33:00;8.20;;;5.05;;
37997;SDS011;24079;51.824;4.682;2023-04-24T00:35:25;8.95;;;5.75;;
37997;SDS011;24079;51.824;4.682;2023-04-24T00:37:51;13.07;;;6.57;;
37997;SDS011;24079;51.824;4.682;2023-04-24T00:40:16;10.82;;;5.82;;
37997;SDS011;24079;51.824;4.682;2023-04-24T00:42:43;13.15;;;6.75;;
37997;SDS011;24079;51.824;4.682;2023-04-24T00:45:09;11.85;;;6.78;;
37997;SDS011;24079;51.824;4.682;2023-04-24T00:47:35;10.75;;;6.60;;
37997;SDS011;24079;51.824;4.682;2023-04-24T00:50:04;9.38;;;6.05;;
37997;SDS011;24079;51.824;4.682;2023-04-24T00:52:31;10.70;;;6.05;;
37997;SDS011;24079;51.824;4.682;2023-04-24T00:54:57;9.60;;;5.80;;
37997;SDS011;24079;51.824;4.682;2023-04-24T00:57:23;10.05;;;6.07;;
37997;SDS011;24079;51.824;4.682;2023-04-24T00:59:50;12.70;;;6.55;;
37997;SDS011;24079;51.824;4.682;2023-04-24T01:02:16;9.85;;;6.93;;
37997;SDS011;24079;51.824;4.682;2023-04-24T01:04:42;11.90;;;8.07;;
37997;SDS011;24079;51.824;4.682;2023-04-24T01:07:08;14.15;;;7.53;;
37997;SDS011;24079;51.824;4.682;2023-04-24T01:09:45;7.22;;;4.85;;
37997;SDS011;24079;51.824;4.682;2023-04-24T01:12:13;6.65;;;4.95;;
37997;SDS011;24079;51.824;4.682;2023-04-24T01:14:38;10.15;;;4.53;;
37997;SDS011;24079;51.824;4.682;2023-04-24T01:17:04;9.50;;;4.95;;
37997;SDS011;24079;51.824;4.682;2023-04-24T01:19:30;14.18;;;5.65;;
37997;SDS011;24079;51.824;4.682;2023-04-24T01:21:58;8.32;;;5.60;;
37997;SDS011;24079;51.824;4.682;2023-04-24T01:24:26;9.32;;;5.80;;
37997;SDS011;24079;51.824;4.682;2023-04-24T01:26:53;9.75;;;6.18;;
37997;SDS011;24079;51.824;4.682;2023-04-24T01:29:19;12.02;;;7.28;;
37997;SDS011;24079;51.824;4.682;2023-04-24T01:31:45;10.57;;;6.88;;
37997;SDS011;24079;51.824;4.682;2023-04-24T01:34:10;13.07;;;7.50;;
37997;SDS011;24079;51.824;4.682;2023-04-24T01:36:36;12.15;;;7.43;;
37997;SDS011;24079;51.824;4.682;2023-04-24T01:39:03;12.13;;;8.88;;
37997;SDS011;24079;51.824;4.682;2023-04-24T01:41:30;15.98;;;9.13;;
37997;SDS011;24079;51.824;4.682;2023-04-24T01:43:56;15.95;;;9.50;;
37997;SDS011;24079;51.824;4.682;2023-04-24T01:46:22;14.93;;;9.48;;
37997;SDS011;24079;51.824;4.682;2023-04-24T01:48:49;13.50;;;9.13;;
37997;SDS011;24079;51.824;4.682;2023-04-24T01:51:17;14.10;;;10.05;;
37997;SDS011;24079;51.824;4.682;2023-04-24T01:53:42;17.60;;;10.55;;
37997;SDS011;24079;51.824;4.682;2023-04-24T01:56:08;14.65;;;9.65;;
37997;SDS011;24079;51.824;4.682;2023-04-24T01:58:34;19.95;;;11.48;;
37997;SDS011;24079;51.824;4.682;2023-04-24T02:01:00;19.17;;;12.35;;
37997;SDS011;24079;51.824;4.682;2023-04-24T02:03:26;20.85;;;12.48;;
37997;SDS011;24079;51.824;4.682;2023-04-24T02:05:52;19.38;;;12.50;;
37997;SDS011;24079;51.824;4.682;2023-04-24T02:08:17;22.70;;;12.85;;
37997;SDS011;24079;51.824;4.682;2023-04-24T02:10:43;24.08;;;14.63;;
37997;SDS011;24079;51.824;4.682;2023-04-24T02:13:09;20.88;;;14.43;;
37997;SDS011;24079;51.824;4.682;2023-04-24T02:15:35;25.48;;;13.65;;
37997;SDS011;24079;51.824;4.682;2023-04-24T02:18:01;22.75;;;13.60;;
37997;SDS011;24079;51.824;4.682;2023-04-24T02:20:26;21.27;;;12.52;;
37997;SDS011;24079;51.824;4.682;2023-04-24T02:22:52;21.73;;;11.82;;
37997;SDS011;24079;51.824;4.682;2023-04-24T02:25:18;20.65;;;11.73;;
37997;SDS011;24079;51.824;4.682;2023-04-24T02:27:43;22.02;;;11.35;;
37997;SDS011;24079;51.824;4.682;2023-04-24T02:30:09;22.67;;;11.95;;
37997;SDS011;24079;51.824;4.682;2023-04-24T02:32:35;23.75;;;12.85;;
37997;SDS011;24079;51.824;4.682;2023-04-24T02:35:01;24.17;;;11.85;;
37997;SDS011;24079;51.824;4.682;2023-04-24T02:37:27;27.38;;;12.85;;
37997;SDS011;24079;51.824;4.682;2023-04-24T02:39:53;21.67;;;9.48;;
37997;SDS011;24079;51.824;4.682;2023-04-24T02:42:19;21.55;;;9.68;;
37997;SDS011;24079;51.824;4.682;2023-04-24T02:44:45;23.42;;;9.32;;
37997;SDS011;24079;51.824;4.682;2023-04-24T02:47:11;16.65;;;9.93;;
37997;SDS011;24079;51.824;4.682;2023-04-24T02:49:37;24.77;;;9.85;;
37997;SDS011;24079;51.824;4.682;2023-04-24T02:52:03;19.63;;;8.90;;
37997;SDS011;24079;51.824;4.682;2023-04-24T02:54:29;19.23;;;8.77;;
37997;SDS011;24079;51.824;4.682;2023-04-24T02:56:55;19.90;;;8.63;;
37997;SDS011;24079;51.824;4.682;2023-04-24T02:59:22;22.13;;;8.95;;
37997;SDS011;24079;51.824;4.682;2023-04-24T03:01:48;19.90;;;8.80;;
37997;SDS011;24079;51.824;4.682;2023-04-24T03:04:14;16.08;;;7.07;;
37997;SDS011;24079;51.824;4.682;2023-04-24T03:06:40;15.00;;;7.28;;
37997;SDS011;24079;51.824;4.682;2023-04-24T03:09:06;15.60;;;8.02;;
37997;SDS011;24079;51.824;4.682;2023-04-24T03:11:31;22.63;;;8.43;;
37997;SDS011;24079;51.824;4.682;2023-04-24T03:13:57;16.58;;;8.10;;
37997;SDS011;24079;51.824;4.682;2023-04-24T03:16:23;15.88;;;8.20;;
37997;SDS011;24079;51.824;4.682;2023-04-24T03:18:48;13.07;;;7.80;;
37997;SDS011;24079;51.824;4.682;2023-04-24T03:21:14;11.68;;;5.85;;
37997;SDS011;24079;51.824;4.682;2023-04-24T03:23:39;11.65;;;4.95;;
37997;SDS011;24079;51.824;4.682;2023-04-24T03:26:05;6.85;;;5.00;;
37997;SDS011;24079;51.824;4.682;2023-04-24T03:28:30;6.35;;;3.75;;
37997;SDS011;24079;51.824;4.682;2023-04-24T03:30:56;9.57;;;3.92;;
37997;SDS011;24079;51.824;4.682;2023-04-24T03:33:21;8.00;;;3.83;;
37997;SDS011;24079;51.824;4.682;2023-04-24T03:35:47;8.15;;;3.42;;
37997;SDS011;24079;51.824;4.682;2023-04-24T03:38:13;4.55;;;3.75;;
37997;SDS011;24079;51.824;4.682;2023-04-24T03:40:38;6.35;;;3.67;;
37997;SDS011;24079;51.824;4.682;2023-04-24T03:43:04;5.03;;;3.40;;
37997;SDS011;24079;51.824;4.682;2023-04-24T03:45:30;5.30;;;3.75;;
37997;SDS011;24079;51.824;4.682;2023-04-24T03:47:55;4.93;;;4.20;;
37997;SDS011;24079;51.824;4.682;2023-04-24T03:50:21;4.70;;;3.58;;
37997;SDS011;24079;51.824;4.682;2023-04-24T03:52:47;5.43;;;3.95;;
37997;SDS011;24079;51.824;4.682;2023-04-24T03:55:12;6.05;;;3.00;;
37997;SDS011;24079;51.824;4.682;2023-04-24T03:57:40;6.72;;;2.60;;
37997;SDS011;24079;51.824;4.682;2023-04-24T04:00:06;6.82;;;2.50;;
37997;SDS011;24079;51.824;4.682;2023-04-24T04:05:53;4.00;;;2.92;;
37997;SDS011;24079;51.824;4.682;2023-04-24T04:08:19;3.92;;;2.50;;
37997;SDS011;24079;51.824;4.682;2023-04-24T04:10:45;9.10;;;3.33;;
37997;SDS011;24079;51.824;4.682;2023-04-24T04:13:10;10.45;;;2.78;;
37997;SDS011;24079;51.824;4.682;2023-04-24T04:15:36;6.50;;;2.80;;
37997;SDS011;24079;51.824;4.682;2023-04-24T04:18:01;7.45;;;3.45;;
37997;SDS011;24079;51.824;4.682;2023-04-24T04:20:27;7.43;;;3.50;;
37997;SDS011;24079;51.824;4.682;2023-04-24T04:22:53;10.13;;;3.40;;
37997;SDS011;24079;51.824;4.682;2023-04-24T04:25:18;11.35;;;3.65;;
37997;SDS011;24079;51.824;4.682;2023-04-24T04:27:44;6.20;;;3.25;;
37997;SDS011;24079;51.824;4.682;2023-04-24T04:30:13;7.80;;;3.88;;
37997;SDS011;24079;51.824;4.682;2023-04-24T04:32:39;6.70;;;3.70;;
37997;SDS011;24079;51.824;4.682;2023-04-24T04:35:04;8.43;;;3.90;;
37997;SDS011;24079;51.824;4.682;2023-04-24T04:37:31;6.35;;;3.97;;
37997;SDS011;24079;51.824;4.682;2023-04-24T04:40:00;6.72;;;4.20;;
37997;SDS011;24079;51.824;4.682;2023-04-24T04:42:31;6.50;;;3.63;;
37997;SDS011;24079;51.824;4.682;2023-04-24T04:44:57;9.13;;;3.50;;
37997;SDS011;24079;51.824;4.682;2023-04-24T04:47:23;5.78;;;3.80;;
37997;SDS011;24079;51.824;4.682;2023-04-24T04:49:49;11.95;;;4.15;;
37997;SDS011;24079;51.824;4.682;2023-04-24T04:52:16;6.43;;;4.20;;
37997;SDS011;24079;51.824;4.682;2023-04-24T04:54:42;9.02;;;4.30;;
37997;SDS011;24079;51.824;4.682;2023-04-24T04:57:08;7.28;;;4.30;;
37997;SDS011;24079;51.824;4.682;2023-04-24T04:59:34;6.45;;;2.90;;
37997;SDS011;24079;51.824;4.682;2023-04-24T05:01:59;4.70;;;2.00;;
37997;SDS011;24079;51.824;4.682;2023-04-24T05:04:25;5.88;;;2.50;;
37997;SDS011;24079;51.824;4.682;2023-04-24T05:06:51;7.10;;;2.70;;
37997;SDS011;24079;51.824;4.682;2023-04-24T05:09:17;4.18;;;2.58;;
37997;SDS011;24079;51.824;4.682;2023-04-24T05:11:43;6.60;;;2.22;;
37997;SDS011;24079;51.824;4.682;2023-04-24T05:14:09;7.93;;;2.50;;
37997;SDS011;24079;51.824;4.682;2023-04-24T05:16:34;5.32;;;2.60;;
37997;SDS011;24079;51.824;4.682;2023-04-24T05:19:01;7.90;;;3.20;;
37997;SDS011;24079;51.824;4.682;2023-04-24T05:21:27;11.35;;;4.22;;
37997;SDS011;24079;51.824;4.682;2023-04-24T05:23:53;12.10;;;5.93;;
37997;SDS011;24079;51.824;4.682;2023-04-24T05:26:18;14.45;;;6.35;;
37997;SDS011;24079;51.824;4.682;2023-04-24T05:29:57;12.32;;;7.20;;
37997;SDS011;24079;51.824;4.682;2023-04-24T05:32:22;18.23;;;8.63;;
37997;SDS011;24079;51.824;4.682;2023-04-24T05:34:48;18.65;;;9.55;;
37997;SDS011;24079;51.824;4.682;2023-04-24T05:37:14;19.70;;;9.70;;
37997;SDS011;24079;51.824;4.682;2023-04-24T05:39:39;19.20;;;9.88;;
37997;SDS011;24079;51.824;4.682;2023-04-24T05:42:06;20.15;;;11.35;;
37997;SDS011;24079;51.824;4.682;2023-04-24T05:44:32;20.02;;;11.38;;
37997;SDS011;24079;51.824;4.682;2023-04-24T05:46:57;19.50;;;10.88;;
37997;SDS011;24079;51.824;4.682;2023-04-24T05:49:26;16.52;;;9.93;;
37997;SDS011;24079;51.824;4.682;2023-04-24T05:51:52;22.27;;;11.20;;
37997;SDS011;24079;51.824;4.682;2023-04-24T05:54:17;26.02;;;11.63;;
37997;SDS011;24079;51.824;4.682;2023-04-24T05:56:43;25.67;;;13.77;;
37997;SDS011;24079;51.824;4.682;2023-04-24T05:59:08;36.53;;;14.32;;
37997;SDS011;24079;51.824;4.682;2023-04-24T06:01:34;37.25;;;14.82;;
37997;SDS011;24079;51.824;4.682;2023-04-24T06:04:01;27.38;;;14.45;;
37997;SDS011;24079;51.824;4.682;2023-04-24T06:06:27;29.40;;;14.90;;
37997;SDS011;24079;51.824;4.682;2023-04-24T06:08:53;28.75;;;14.98;;
37997;SDS011;24079;51.824;4.682;2023-04-24T06:11:19;28.70;;;15.50;;
37997;SDS011;24079;51.824;4.682;2023-04-24T06:13:45;29.75;;;14.68;;
37997;SDS011;24079;51.824;4.682;2023-04-24T06:16:11;29.05;;;14.32;;
37997;SDS011;24079;51.824;4.682;2023-04-24T06:18:36;27.20;;;14.43;;
37997;SDS011;24079;51.824;4.682;2023-04-24T06:21:02;36.08;;;14.93;;
37997;SDS011;24079;51.824;4.682;2023-04-24T06:23:29;29.95;;;13.18;;
37997;SDS011;24079;51.824;4.682;2023-04-24T06:25:57;26.98;;;12.27;;
37997;SDS011;24079;51.824;4.682;2023-04-24T06:28:23;28.23;;;13.60;;
37997;SDS011;24079;51.824;4.682;2023-04-24T06:30:49;30.42;;;12.07;;
37997;SDS011;24079;51.824;4.682;2023-04-24T06:33:15;25.10;;;11.35;;
37997;SDS011;24079;51.824;4.682;2023-04-24T06:35:42;35.17;;;12.43;;
37997;SDS011;24079;51.824;4.682;2023-04-24T06:38:07;31.42;;;9.90;;
37997;SDS011;24079;51.824;4.682;2023-04-24T06:40:33;32.50;;;8.35;;
37997;SDS011;24079;51.824;4.682;2023-04-24T06:42:59;32.60;;;9.05;;
37997;SDS011;24079;51.824;4.682;2023-04-24T06:45:25;32.45;;;8.20;;
37997;SDS011;24079;51.824;4.682;2023-04-24T06:47:50;29.08;;;7.32;;
37997;SDS011;24079;51.824;4.682;2023-04-24T06:50:16;28.17;;;7.53;;
37997;SDS011;24079;51.824;4.682;2023-04-24T06:52:42;36.53;;;8.55;;
37997;SDS011;24079;51.824;4.682;2023-04-24T06:55:09;30.08;;;7.40;;
37997;SDS011;24079;51.824;4.682;2023-04-24T06:57:36;40.28;;;7.90;;
37997;SDS011;24079;51.824;4.682;2023-04-24T07:00:02;34.40;;;9.63;;
37997;SDS011;24079;51.824;4.682;2023-04-24T07:02:30;25.02;;;8.27;;
37997;SDS011;24079;51.824;4.682;2023-04-24T07:04:55;35.95;;;7.95;;
37997;SDS011;24079;51.824;4.682;2023-04-24T07:07:22;34.17;;;8.57;;
37997;SDS011;24079;51.824;4.682;2023-04-24T07:09:49;25.67;;;7.10;;
37997;SDS011;24079;51.824;4.682;2023-04-24T07:12:15;37.35;;;8.38;;
37997;SDS011;24079;51.824;4.682;2023-04-24T07:14:42;32.78;;;7.03;;
37997;SDS011;24079;51.824;4.682;2023-04-24T07:17:08;29.02;;;7.03;;
37997;SDS011;24079;51.824;4.682;2023-04-24T07:19:34;35.08;;;7.28;;
37997;SDS011;24079;51.824;4.682;2023-04-24T07:22:01;36.08;;;7.13;;
37997;SDS011;24079;51.824;4.682;2023-04-24T07:24:28;31.30;;;6.38;;
37997;SDS011;24079;51.824;4.682;2023-04-24T07:26:55;39.70;;;6.82;;
37997;SDS011;24079;51.824;4.682;2023-04-24T07:29:22;34.97;;;5.78;;
37997;SDS011;24079;51.824;4.682;2023-04-24T07:31:47;36.50;;;7.00;;
37997;SDS011;24079;51.824;4.682;2023-04-24T07:34:13;27.88;;;5.88;;
37997;SDS011;24079;51.824;4.682;2023-04-24T07:36:39;31.05;;;5.80;;
37997;SDS011;24079;51.824;4.682;2023-04-24T07:39:06;27.48;;;5.50;;
37997;SDS011;24079;51.824;4.682;2023-04-24T07:41:32;28.63;;;6.05;;
37997;SDS011;24079;51.824;4.682;2023-04-24T07:43:58;41.33;;;5.78;;
37997;SDS011;24079;51.824;4.682;2023-04-24T07:46:23;29.00;;;4.97;;
37997;SDS011;24079;51.824;4.682;2023-04-24T07:48:49;31.63;;;4.95;;
37997;SDS011;24079;51.824;4.682;2023-04-24T07:51:15;24.55;;;4.30;;
37997;SDS011;24079;51.824;4.682;2023-04-24T07:53:41;25.52;;;4.85;;
37997;SDS011;24079;51.824;4.682;2023-04-24T07:56:07;32.25;;;5.03;;
37997;SDS011;24079;51.824;4.682;2023-04-24T07:58:34;27.08;;;4.78;;
37997;SDS011;24079;51.824;4.682;2023-04-24T08:01:00;32.42;;;4.72;;
37997;SDS011;24079;51.824;4.682;2023-04-24T08:03:25;21.70;;;4.50;;
37997;SDS011;24079;51.824;4.682;2023-04-24T08:05:51;21.73;;;4.50;;
37997;SDS011;24079;51.824;4.682;2023-04-24T08:08:17;18.63;;;4.28;;
37997;SDS011;24079;51.824;4.682;2023-04-24T08:10:42;20.23;;;3.95;;
37997;SDS011;24079;51.824;4.682;2023-04-24T08:13:08;24.50;;;5.90;;
37997;SDS011;24079;51.824;4.682;2023-04-24T08:15:34;21.92;;;4.22;;
37997;SDS011;24079;51.824;4.682;2023-04-24T08:18:00;21.95;;;4.10;;
37997;SDS011;24079;51.824;4.682;2023-04-24T08:20:25;23.63;;;4.25;;
37997;SDS011;24079;51.824;4.682;2023-04-24T08:22:51;16.90;;;3.80;;
37997;SDS011;24079;51.824;4.682;2023-04-24T08:25:17;15.80;;;4.32;;
37997;SDS011;24079;51.824;4.682;2023-04-24T08:27:44;27.65;;;4.40;;
37997;SDS011;24079;51.824;4.682;2023-04-24T08:30:09;22.30;;;4.65;;
37997;SDS011;24079;51.824;4.682;2023-04-24T08:32:36;19.30;;;4.30;;
37997;SDS011;24079;51.824;4.682;2023-04-24T08:35:02;16.95;;;3.63;;
37997;SDS011;24079;51.824;4.682;2023-04-24T08:37:28;18.52;;;3.13;;
37997;SDS011;24079;51.824;4.682;2023-04-24T08:39:54;25.80;;;3.60;;
37997;SDS011;24079;51.824;4.682;2023-04-24T08:42:20;18.80;;;3.85;;
37997;SDS011;24079;51.824;4.682;2023-04-24T08:44:47;21.45;;;3.67;;
37997;SDS011;24079;51.824;4.682;2023-04-24T08:47:14;19.55;;;3.72;;
37997;SDS011;24079;51.824;4.682;2023-04-24T08:49:40;15.65;;;3.20;;
37997;SDS011;24079;51.824;4.682;2023-04-24T08:52:06;16.67;;;3.13;;
37997;SDS011;24079;51.824;4.682;2023-04-24T08:54:33;9.93;;;2.40;;
37997;SDS011;24079;51.824;4.682;2023-04-24T08:57:00;20.00;;;3.70;;
37997;SDS011;24079;51.824;4.682;2023-04-24T08:59:28;10.05;;;3.00;;
37997;SDS011;24079;51.824;4.682;2023-04-24T09:01:57;14.40;;;2.78;;
37997;SDS011;24079;51.824;4.682;2023-04-24T09:04:23;9.80;;;2.40;;
37997;SDS011;24079;51.824;4.682;2023-04-24T09:06:57;11.05;;;2.60;;
37997;SDS011;24079;51.824;4.682;2023-04-24T09:09:23;14.05;;;3.00;;
37997;SDS011;24079;51.824;4.682;2023-04-24T09:11:50;20.23;;;3.20;;
37997;SDS011;24079;51.824;4.682;2023-04-24T09:14:18;14.07;;;3.17;;
37997;SDS011;24079;51.824;4.682;2023-04-24T09:16:45;11.55;;;2.30;;
37997;SDS011;24079;51.824;4.682;2023-04-24T09:19:11;13.63;;;3.70;;
37997;SDS011;24079;51.824;4.682;2023-04-24T09:21:37;9.88;;;2.30;;
37997;SDS011;24079;51.824;4.682;2023-04-24T09:24:04;8.50;;;2.22;;
37997;SDS011;24079;51.824;4.682;2023-04-24T09:26:34;12.73;;;2.60;;
37997;SDS011;24079;51.824;4.682;2023-04-24T09:29:02;13.82;;;2.20;;
37997;SDS011;24079;51.824;4.682;2023-04-24T09:31:29;10.32;;;2.47;;
37997;SDS011;24079;51.824;4.682;2023-04-24T09:36:27;5.38;;;2.15;;
37997;SDS011;24079;51.824;4.682;2023-04-24T09:38:59;11.82;;;1.80;;
37997;SDS011;24079;51.824;4.682;2023-04-24T09:41:26;5.80;;;1.30;;
37997;SDS011;24079;51.824;4.682;2023-04-24T09:43:53;5.13;;;1.10;;
37997;SDS011;24079;51.824;4.682;2023-04-24T09:46:21;5.38;;;1.20;;
37997;SDS011;24079;51.824;4.682;2023-04-24T09:48:47;5.45;;;1.23;;
37997;SDS011;24079;51.824;4.682;2023-04-24T09:51:13;5.90;;;1.40;;
37997;SDS011;24079;51.824;4.682;2023-04-24T09:53:45;9.13;;;1.67;;
37997;SDS011;24079;51.824;4.682;2023-04-24T09:56:11;5.03;;;1.02;;
37997;SDS011;24079;51.824;4.682;2023-04-24T09:58:38;6.82;;;1.30;;
37997;SDS011;24079;51.824;4.682;2023-04-24T10:01:04;6.10;;;1.05;;
37997;SDS011;24079;51.824;4.682;2023-04-24T10:03:31;10.85;;;1.88;;
37997;SDS011;24079;51.824;4.682;2023-04-24T10:06:01;5.40;;;1.10;;
37997;SDS011;24079;51.824;4.682;2023-04-24T10:08:34;8.45;;;1.00;;
37997;SDS011;24079;51.824;4.682;2023-04-24T10:11:01;9.60;;;1.80;;
37997;SDS011;24079;51.824;4.682;2023-04-24T10:13:28;10.43;;;1.23;;
37997;SDS011;24079;51.824;4.682;2023-04-24T10:15:54;4.63;;;1.52;;
37997;SDS011;24079;51.824;4.682;2023-04-24T10:18:25;6.47;;;1.42;;
37997;SDS011;24079;51.824;4.682;2023-04-24T10:20:52;6.13;;;1.20;;
37997;SDS011;24079;51.824;4.682;2023-04-24T10:23:20;6.15;;;1.27;;
37997;SDS011;24079;51.824;4.682;2023-04-24T10:25:46;8.13;;;1.27;;
37997;SDS011;24079;51.824;4.682;2023-04-24T10:28:15;9.38;;;1.65;;
37997;SDS011;24079;51.824;4.682;2023-04-24T10:30:42;4.80;;;1.20;;
37997;SDS011;24079;51.824;4.682;2023-04-24T10:33:08;14.20;;;1.80;;
37997;SDS011;24079;51.824;4.682;2023-04-24T10:35:36;5.30;;;1.38;;
37997;SDS011;24079;51.824;4.682;2023-04-24T10:40:49;8.80;;;1.75;;
37997;SDS011;24079;51.824;4.682;2023-04-24T10:43:16;8.38;;;1.40;;
37997;SDS011;24079;51.824;4.682;2023-04-24T10:45:42;12.35;;;1.55;;
37997;SDS011;24079;51.824;4.682;2023-04-24T10:48:28;9.18;;;1.83;;
37997;SDS011;24079;51.824;4.682;2023-04-24T10:50:54;8.55;;;1.80;;
37997;SDS011;24079;51.824;4.682;2023-04-24T10:53:21;9.15;;;2.17;;
37997;SDS011;24079;51.824;4.682;2023-04-24T10:55:51;9.50;;;1.88;;
37997;SDS011;24079;51.824;4.682;2023-04-24T10:58:37;11.25;;;2.08;;
37997;SDS011;24079;51.824;4.682;2023-04-24T11:01:05;11.40;;;1.70;;
37997;SDS011;24079;51.824;4.682;2023-04-24T11:03:32;8.13;;;1.70;;
37997;SDS011;24079;51.824;4.682;2023-04-24T11:08:30;13.77;;;1.88;;
37997;SDS011;24079;51.824;4.682;2023-04-24T11:10:58;9.45;;;2.40;;
37997;SDS011;24079;51.824;4.682;2023-04-24T11:13:31;8.80;;;1.73;;
37997;SDS011;24079;51.824;4.682;2023-04-24T11:16:32;14.40;;;2.08;;
37997;SDS011;24079;51.824;4.682;2023-04-24T11:22:03;7.80;;;1.85;;
37997;SDS011;24079;51.824;4.682;2023-04-24T11:32:23;10.65;;;2.10;;
37997;SDS011;24079;51.824;4.682;2023-04-24T11:34:57;15.23;;;2.35;;
37997;SDS011;24079;51.824;4.682;2023-04-24T11:37:29;8.77;;;1.88;;
37997;SDS011;24079;51.824;4.682;2023-04-24T11:40:02;11.95;;;2.22;;
37997;SDS011;24079;51.824;4.682;2023-04-24T11:42:39;15.40;;;1.83;;
37997;SDS011;24079;51.824;4.682;2023-04-24T11:45:07;11.35;;;2.05;;
37997;SDS011;24079;51.824;4.682;2023-04-24T11:47:36;7.43;;;1.95;;
37997;SDS011;24079;51.824;4.682;2023-04-24T11:50:03;10.77;;;1.92;;
37997;SDS011;24079;51.824;4.682;2023-04-24T11:52:30;8.40;;;1.80;;
37997;SDS011;24079;51.824;4.682;2023-04-24T11:54:56;12.45;;;2.13;;
37997;SDS011;24079;51.824;4.682;2023-04-24T11:57:23;6.80;;;1.80;;
37997;SDS011;24079;51.824;4.682;2023-04-24T11:59:51;7.57;;;2.08;;
37997;SDS011;24079;51.824;4.682;2023-04-24T12:02:23;14.65;;;2.00;;
37997;SDS011;24079;51.824;4.682;2023-04-24T12:04:51;13.50;;;2.50;;
37997;SDS011;24079;51.824;4.682;2023-04-24T12:07:17;9.23;;;1.67;;
37997;SDS011;24079;51.824;4.682;2023-04-24T12:09:47;14.98;;;2.03;;
37997;SDS011;24079;51.824;4.682;2023-04-24T12:12:24;6.57;;;1.63;;
37997;SDS011;24079;51.824;4.682;2023-04-24T12:14:54;8.20;;;2.15;;
37997;SDS011;24079;51.824;4.682;2023-04-24T12:17:28;15.13;;;1.98;;
37997;SDS011;24079;51.824;4.682;2023-04-24T12:19:59;9.65;;;1.98;;
37997;SDS011;24079;51.824;4.682;2023-04-24T12:25:19;8.80;;;2.03;;
37997;SDS011;24079;51.824;4.682;2023-04-24T12:27:57;9.80;;;1.90;;
37997;SDS011;24079;51.824;4.682;2023-04-24T12:30:44;8.32;;;2.00;;
37997;SDS011;24079;51.824;4.682;2023-04-24T12:33:17;6.82;;;1.77;;
37997;SDS011;24079;51.824;4.682;2023-04-24T12:35:43;11.23;;;2.30;;
37997;SDS011;24079;51.824;4.682;2023-04-24T12:38:09;8.48;;;1.90;;
37997;SDS011;24079;51.824;4.682;2023-04-24T12:40:37;10.15;;;2.15;;
37997;SDS011;24079;51.824;4.682;2023-04-24T12:43:12;9.27;;;2.10;;
37997;SDS011;24079;51.824;4.682;2023-04-24T12:45:43;13.57;;;2.30;;
37997;SDS011;24079;51.824;4.682;2023-04-24T12:48:10;6.35;;;1.70;;
37997;SDS011;24079;51.824;4.682;2023-04-24T12:50:36;10.70;;;2.00;;
37997;SDS011;24079;51.824;4.682;2023-04-24T12:53:03;10.70;;;2.05;;
37997;SDS011;24079;51.824;4.682;2023-04-24T12:55:28;15.48;;;2.50;;
37997;SDS011;24079;51.824;4.682;2023-04-24T12:57:54;11.35;;;2.40;;
37997;SDS011;24079;51.824;4.682;2023-04-24T13:00:21;10.10;;;2.20;;
37997;SDS011;24079;51.824;4.682;2023-04-24T13:02:47;14.13;;;2.28;;
37997;SDS011;24079;51.824;4.682;2023-04-24T13:05:12;12.48;;;2.83;;
37997;SDS011;24079;51.824;4.682;2023-04-24T13:07:38;12.25;;;2.25;;
37997;SDS011;24079;51.824;4.682;2023-04-24T13:10:05;14.57;;;3.15;;
37997;SDS011;24079;51.824;4.682;2023-04-24T13:12:32;12.32;;;2.85;;
37997;SDS011;24079;51.824;4.682;2023-04-24T13:14:57;11.75;;;2.83;;
37997;SDS011;24079;51.824;4.682;2023-04-24T13:17:23;17.83;;;3.08;;
37997;SDS011;24079;51.824;4.682;2023-04-24T13:19:50;16.65;;;3.08;;
37997;SDS011;24079;51.824;4.682;2023-04-24T13:22:16;16.15;;;2.97;;
37997;SDS011;24079;51.824;4.682;2023-04-24T13:24:43;13.90;;;2.58;;
37997;SDS011;24079;51.824;4.682;2023-04-24T13:27:09;15.80;;;2.92;;
37997;SDS011;24079;51.824;4.682;2023-04-24T13:29:36;13.07;;;2.78;;
37997;SDS011;24079;51.824;4.682;2023-04-24T13:32:02;14.05;;;2.50;;
37997;SDS011;24079;51.824;4.682;2023-04-24T13:34:28;11.65;;;2.58;;
37997;SDS011;24079;51.824;4.682;2023-04-24T13:36:54;9.60;;;3.42;;
37997;SDS011;24079;51.824;4.682;2023-04-24T13:39:21;18.05;;;3.10;;
37997;SDS011;24079;51.824;4.682;2023-04-24T13:41:47;18.48;;;2.78;;
37997;SDS011;24079;51.824;4.682;2023-04-24T13:44:14;11.65;;;3.03;;
37997;SDS011;24079;51.824;4.682;2023-04-24T13:46:40;17.45;;;3.35;;
37997;SDS011;24079;51.824;4.682;2023-04-24T13:49:08;14.45;;;4.07;;
37997;SDS011;24079;51.824;4.682;2023-04-24T13:51:34;11.82;;;3.05;;
37997;SDS011;24079;51.824;4.682;2023-04-24T13:54:00;12.45;;;3.47;;
37997;SDS011;24079;51.824;4.682;2023-04-24T13:56:26;15.52;;;4.13;;
37997;SDS011;24079;51.824;4.682;2023-04-24T13:58:53;17.05;;;3.80;;
37997;SDS011;24079;51.824;4.682;2023-04-24T14:01:22;15.88;;;4.72;;
37997;SDS011;24079;51.824;4.682;2023-04-24T14:03:51;11.65;;;3.50;;
37997;SDS011;24079;51.824;4.682;2023-04-24T14:06:19;19.80;;;5.63;;
37997;SDS011;24079;51.824;4.682;2023-04-24T14:08:45;28.25;;;5.13;;
37997;SDS011;24079;51.824;4.682;2023-04-24T14:11:11;13.15;;;3.72;;
37997;SDS011;24079;51.824;4.682;2023-04-24T14:13:36;13.93;;;4.43;;
37997;SDS011;24079;51.824;4.682;2023-04-24T14:16:03;20.65;;;4.80;;
37997;SDS011;24079;51.824;4.682;2023-04-24T14:18:29;15.25;;;4.65;;
37997;SDS011;24079;51.824;4.682;2023-04-24T14:20:55;19.25;;;6.03;;
37997;SDS011;24079;51.824;4.682;2023-04-24T14:23:20;22.52;;;4.60;;
37997;SDS011;24079;51.824;4.682;2023-04-24T14:25:46;7.65;;;2.50;;
37997;SDS011;24079;51.824;4.682;2023-04-24T14:28:15;11.18;;;2.88;;
37997;SDS011;24079;51.824;4.682;2023-04-24T14:30:42;8.80;;;2.83;;
37997;SDS011;24079;51.824;4.682;2023-04-24T14:33:07;12.73;;;2.95;;
37997;SDS011;24079;51.824;4.682;2023-04-24T14:35:33;12.57;;;3.42;;
37997;SDS011;24079;51.824;4.682;2023-04-24T14:38:00;16.05;;;3.90;;
37997;SDS011;24079;51.824;4.682;2023-04-24T14:40:25;19.52;;;4.00;;
37997;SDS011;24079;51.824;4.682;2023-04-24T14:42:51;19.77;;;4.63;;
37997;SDS011;24079;51.824;4.682;2023-04-24T14:45:17;18.92;;;4.68;;
37997;SDS011;24079;51.824;4.682;2023-04-24T14:47:43;17.08;;;4.45;;
37997;SDS011;24079;51.824;4.682;2023-04-24T14:50:09;22.38;;;4.90;;
37997;SDS011;24079;51.824;4.682;2023-04-24T14:52:35;15.68;;;4.38;;
37997;SDS011;24079;51.824;4.682;2023-04-24T14:55:02;15.93;;;4.18;;
37997;SDS011;24079;51.824;4.682;2023-04-24T14:57:28;22.38;;;4.13;;
37997;SDS011;24079;51.824;4.682;2023-04-24T14:59:54;17.67;;;3.88;;
37997;SDS011;24079;51.824;4.682;2023-04-24T15:02:19;22.80;;;4.03;;